Time;durP1;ratioP1;P1;durP2;ratioP2;P2;SDS_P1;SDS_P2;PMS_P1;PMS_P2;Temp;Humidity;BMP_temperature;BMP_pressure;BME280_temperature;BME280_humidity;BME280_pressure;Samples;Min_cycle;Max_cycle;Signal;HPM_P1;HPM_P2
2023/08/31 00:01:29;;;;;;;3.65;3.35;;;;;;;11.35;100.00;100669.38;4970213;28;20470;-69
2023/08/31 00:03:55;;;;;;;4.80;3.08;;;;;;;11.34;100.00;100670.19;4970194;28;20031;-69
2023/08/31 00:06:21;;;;;;;5.03;3.42;;;;;;;11.32;100.00;100670.16;4969866;28;20050;-68
2023/08/31 00:08:47;;;;;;;3.97;3.58;;;;;;;11.31;100.00;100672.72;4968739;28;20453;-69
2023/08/31 00:11:12;;;;;;;8.30;4.38;;;;;;;11.23;100.00;100672.50;4957985;28;20113;-68
2023/08/31 00:13:38;;;;;;;4.72;4.32;;;;;;;11.21;100.00;100667.28;4988436;28;20037;-66
2023/08/31 00:16:04;;;;;;;7.13;4.50;;;;;;;11.14;100.00;100665.34;4958349;28;20072;-67
2023/08/31 00:18:30;;;;;;;6.50;4.53;;;;;;;11.15;100.00;100661.94;4975453;28;20054;-69
2023/08/31 00:20:55;;;;;;;5.47;4.80;;;;;;;11.05;100.00;100660.78;4976476;28;20645;-69
2023/08/31 00:23:21;;;;;;;5.38;4.72;;;;;;;11.04;100.00;100659.91;4975411;28;20474;-68
2023/08/31 00:25:50;;;;;;;6.85;5.15;;;;;;;10.99;100.00;100666.69;4988606;28;20034;-68
2023/08/31 00:28:18;;;;;;;6.10;4.82;;;;;;;10.95;100.00;100659.69;4988105;28;20050;-69
2023/08/31 00:30:44;;;;;;;5.93;5.25;;;;;;;10.92;100.00;100654.38;4988205;28;20030;-67
2023/08/31 00:33:10;;;;;;;6.25;5.65;;;;;;;10.93;100.00;100657.06;4989028;28;20344;-67
2023/08/31 00:35:35;;;;;;;6.95;6.32;;;;;;;10.93;100.00;100661.34;4977450;28;20440;-69
2023/08/31 00:38:01;;;;;;;10.00;6.45;;;;;;;10.96;100.00;100661.44;4968927;28;20022;-68
2023/08/31 00:40:32;;;;;;;7.30;6.07;;;;;;;10.94;100.00;100657.91;4968823;28;20041;-65
2023/08/31 00:42:57;;;;;;;7.82;6.32;;;;;;;10.96;100.00;100666.59;4986388;28;20038;-69
2023/08/31 00:45:23;;;;;;;7.40;6.57;;;;;;;10.96;100.00;100666.59;4972490;28;20030;-69
2023/08/31 00:47:49;;;;;;;6.78;6.03;;;;;;;10.97;100.00;100662.31;4969181;28;20031;-70
2023/08/31 00:50:15;;;;;;;7.22;6.53;;;;;;;10.93;100.00;100658.75;4969674;28;20023;-69
2023/08/31 00:52:44;;;;;;;7.28;6.55;;;;;;;10.92;100.00;100659.56;4968813;28;20034;-66
2023/08/31 00:55:10;;;;;;;7.93;5.90;;;;;;;10.87;100.00;100655.97;4981562;28;20054;-69
2023/08/31 00:57:35;;;;;;;7.90;6.90;;;;;;;10.82;100.00;100658.47;4968612;28;20029;-69
2023/08/31 01:00:01;;;;;;;7.63;6.93;;;;;;;10.82;100.00;100658.47;4964608;28;20026;-66
2023/08/31 01:02:33;;;;;;;7.05;6.45;;;;;;;10.79;100.00;100653.19;4988379;28;20051;-68
2023/08/31 01:05:07;;;;;;;7.38;6.53;;;;;;;10.75;100.00;100652.22;4986771;28;20022;-69
2023/08/31 01:07:57;;;;;;;8.27;7.28;;;;;;;10.75;100.00;100652.22;4968541;28;20451;-69
2023/08/31 01:10:22;;;;;;;7.30;6.25;;;;;;;10.76;100.00;100647.91;4969004;28;20063;-69
2023/08/31 01:12:55;;;;;;;7.43;6.07;;;;;;;10.74;100.00;100650.44;4986135;28;20049;-69
2023/08/31 01:15:21;;;;;;;6.97;6.38;;;;;;;10.73;100.00;100646.13;4987527;28;20169;-70
2023/08/31 01:17:54;;;;;;;7.68;6.93;;;;;;;10.75;100.00;100647.03;4987051;28;20109;-67
2023/08/31 01:20:38;;;;;;;8.15;7.18;;;;;;;10.74;100.00;100645.28;4987082;28;20086;-67
2023/08/31 01:23:14;;;;;;;8.45;6.65;;;;;;;10.76;100.00;100653.97;4977602;28;20105;-67
2023/08/31 01:25:42;;;;;;;7.72;7.00;;;;;;;10.74;100.00;100645.28;4991226;28;20494;-70
2023/08/31 01:28:08;;;;;;;7.05;6.32;;;;;;;10.67;100.00;100648.50;4991877;28;20489;-69
2023/08/31 01:30:34;;;;;;;8.00;7.20;;;;;;;10.66;100.00;100651.97;4990684;28;20406;-69
2023/08/31 01:32:59;;;;;;;7.47;6.72;;;;;;;10.69;100.00;100652.94;4981010;28;20042;-70
2023/08/31 01:35:25;;;;;;;8.20;6.95;;;;;;;10.69;100.00;100655.50;4958560;28;20023;-69
2023/08/31 01:37:59;;;;;;;9.13;6.65;;;;;;;10.68;100.00;100655.47;4990387;28;20074;-70
2023/08/31 01:40:33;;;;;;;7.32;6.72;;;;;;;10.68;100.00;100660.66;4990915;28;20465;-70
2023/08/31 01:43:01;;;;;;;8.20;7.40;;;;;;;10.66;100.00;100658.03;4990903;28;20038;-68
2023/08/31 01:45:26;;;;;;;8.32;7.43;;;;;;;10.64;100.00;100664.00;4977943;28;20493;-70
2023/08/31 01:47:52;;;;;;;8.07;7.22;;;;;;;10.59;100.00;100662.97;4991269;28;20030;-67
2023/08/31 01:50:17;;;;;;;8.90;8.00;;;;;;;10.59;100.00;100660.38;4986184;28;20542;-68
2023/08/31 01:52:42;;;;;;;8.30;7.50;;;;;;;10.61;100.00;100666.50;4972188;28;20086;-66
2023/08/31 01:55:08;;;;;;;8.68;7.88;;;;;;;10.62;100.00;100665.66;4989599;28;20019;-70
2023/08/31 01:57:34;;;;;;;7.97;7.25;;;;;;;10.62;100.00;100660.47;4990784;28;20022;-69
2023/08/31 02:00:00;;;;;;;10.05;9.05;;;;;;;10.60;100.00;100662.13;4990868;28;20022;-69
2023/08/31 02:02:25;;;;;;;8.30;7.47;;;;;;;10.60;100.00;100659.53;4991132;28;20488;-69
2023/08/31 02:04:51;;;;;;;9.13;8.32;;;;;;;10.62;100.00;100660.47;4990124;28;20041;-68
2023/08/31 02:07:16;;;;;;;10.25;8.07;;;;;;;10.63;100.00;100664.84;4990806;28;20410;-69
2023/08/31 02:09:42;;;;;;;10.02;8.18;;;;;;;10.64;100.00;100664.00;4990284;28;20149;-68
2023/08/31 02:12:09;;;;;;;12.07;9.40;;;;;;;10.64;100.00;100664.00;4990774;28;20041;-69
2023/08/31 02:14:34;;;;;;;10.27;9.35;;;;;;;10.67;100.00;100664.06;4989686;28;20122;-67
2023/08/31 02:17:00;;;;;;;10.70;9.65;;;;;;;10.68;100.00;100676.22;4990798;28;20058;-69
2023/08/31 02:19:25;;;;;;;10.45;9.55;;;;;;;10.71;100.00;100665.94;4990304;28;20026;-67
2023/08/31 02:21:50;;;;;;;9.40;8.40;;;;;;;10.76;100.00;100668.63;4990717;28;20478;-69
2023/08/31 02:24:16;;;;;;;10.25;9.23;;;;;;;10.77;100.00;100667.81;4989768;28;20045;-69
2023/08/31 02:26:41;;;;;;;12.00;9.52;;;;;;;10.76;100.00;100669.53;4990294;28;20082;-68
2023/08/31 02:29:06;;;;;;;11.95;9.15;;;;;;;10.75;100.00;100667.78;4989849;28;20049;-69
2023/08/31 02:31:32;;;;;;;10.00;9.10;;;;;;;10.72;100.00;100662.47;4978143;28;20018;-68
2023/08/31 02:33:57;;;;;;;11.10;9.90;;;;;;;10.73;100.00;100669.44;4993949;28;20017;-69
2023/08/31 02:36:22;;;;;;;11.90;10.10;;;;;;;10.75;100.00;100660.00;4985981;28;20035;-69
2023/08/31 02:38:49;;;;;;;11.60;10.13;;;;;;;10.75;100.00;100657.41;4983618;28;20462;-69
2023/08/31 02:41:15;;;;;;;11.32;10.18;;;;;;;10.75;100.00;100665.19;4971132;28;20030;-68
2023/08/31 02:43:40;;;;;;;12.00;10.27;;;;;;;10.77;100.00;100667.81;4984503;28;20084;-69
2023/08/31 02:46:06;;;;;;;11.10;9.90;;;;;;;10.74;100.00;100671.19;4971283;28;20158;-67
2023/08/31 02:48:34;;;;;;;11.65;10.55;;;;;;;10.73;100.00;100677.22;4988027;28;20085;-69
2023/08/31 02:51:02;;;;;;;11.60;10.43;;;;;;;10.68;100.00;100676.22;4990295;28;20214;-69
2023/08/31 02:53:29;;;;;;;11.18;10.07;;;;;;;10.68;100.00;100676.22;4988625;28;20026;-68
2023/08/31 02:55:55;;;;;;;11.02;10.02;;;;;;;10.66;100.00;100672.69;4989899;28;20038;-69
2023/08/31 02:58:20;;;;;;;14.40;11.48;;;;;;;10.66;100.00;100671.00;4989787;28;20036;-69
2023/08/31 03:00:48;;;;;;;12.95;11.68;;;;;;;10.64;100.00;100675.25;4977890;28;20061;-69
2023/08/31 03:03:15;;;;;;;15.52;14.07;;;;;;;10.60;100.00;100667.31;4976173;28;20437;-69
2023/08/31 03:05:40;;;;;;;18.42;16.40;;;;;;;10.53;100.00;100671.44;4989669;28;20470;-69
2023/08/31 03:08:06;;;;;;;19.00;16.75;;;;;;;10.54;100.00;100673.22;4989071;28;20037;-67
2023/08/31 03:10:31;;;;;;;19.95;17.90;;;;;;;10.52;100.00;100672.28;4989899;28;20457;-70
2023/08/31 03:12:56;;;;;;;22.52;18.75;;;;;;;10.53;100.00;100674.03;4989506;28;20026;-69
2023/08/31 03:15:21;;;;;;;20.55;18.45;;;;;;;10.50;100.00;100673.94;4989596;28;20046;-69
2023/08/31 03:17:47;;;;;;;21.48;19.15;;;;;;;10.49;100.00;100677.38;4988781;28;20026;-68
2023/08/31 03:20:12;;;;;;;22.25;19.85;;;;;;;10.48;100.00;100684.28;4989517;28;20022;-68
2023/08/31 03:22:37;;;;;;;21.65;19.50;;;;;;;10.44;100.00;100684.97;4988461;28;20026;-69
2023/08/31 03:25:03;;;;;;;26.30;20.77;;;;;;;10.42;100.00;100678.88;4988500;28;20030;-69
2023/08/31 03:27:28;;;;;;;21.95;19.85;;;;;;;10.37;100.00;100683.03;4987905;28;20070;-69
2023/08/31 03:29:53;;;;;;;22.67;20.27;;;;;;;10.36;100.00;100679.53;4988578;28;20150;-69
2023/08/31 03:32:19;;;;;;;21.60;19.33;;;;;;;10.38;100.00;100682.22;4975601;28;20188;-69
2023/08/31 03:34:44;;;;;;;20.55;18.55;;;;;;;10.30;100.00;100674.19;4989088;28;20042;-68
2023/08/31 03:37:09;;;;;;;19.70;17.83;;;;;;;10.31;100.00;100679.41;4989168;28;20034;-69
2023/08/31 03:39:34;;;;;;;20.58;18.63;;;;;;;10.31;100.00;100675.94;4988926;28;20029;-69
2023/08/31 03:42:00;;;;;;;19.17;17.27;;;;;;;10.32;100.00;100672.53;4983755;28;20042;-67
2023/08/31 03:44:25;;;;;;;18.90;17.08;;;;;;;10.30;100.00;100669.91;4969285;28;20035;-69
2023/08/31 03:46:50;;;;;;;18.60;16.85;;;;;;;10.29;100.00;100668.13;4985353;28;20486;-65
2023/08/31 03:49:16;;;;;;;18.23;16.65;;;;;;;10.29;100.00;100673.31;4979015;28;20041;-70
2023/08/31 03:51:41;;;;;;;19.08;17.27;;;;;;;10.28;100.00;100662.91;4973418;28;20018;-67
2023/08/31 03:54:06;;;;;;;19.70;17.65;;;;;;;10.23;100.00;100667.97;4979066;28;20023;-68
2023/08/31 03:56:31;;;;;;;19.98;17.95;;;;;;;10.20;100.00;100668.72;4982568;28;20082;-69
2023/08/31 03:58:57;;;;;;;23.83;21.23;;;;;;;10.18;100.00;100666.94;4969938;28;20038;-70
2023/08/31 04:01:23;;;;;;;23.92;21.30;;;;;;;10.17;100.00;100678.13;4969861;28;20070;-70
2023/08/31 04:03:48;;;;;;;25.40;21.60;;;;;;;10.16;100.00;100668.59;4970229;28;20039;-70
2023/08/31 04:06:14;;;;;;;24.55;21.95;;;;;;;10.17;100.00;100678.13;4970117;28;20484;-70
2023/08/31 04:08:39;;;;;;;27.40;23.23;;;;;;;10.19;100.00;100679.03;4970473;28;20019;-69
2023/08/31 04:11:04;;;;;;;25.70;22.85;;;;;;;10.17;100.00;100680.69;4970042;28;20039;-67
2023/08/31 04:13:29;;;;;;;26.35;23.60;;;;;;;10.17;100.00;100689.34;4970170;28;20062;-69
2023/08/31 04:15:55;;;;;;;25.67;22.98;;;;;;;10.20;100.00;100696.31;4969835;28;20038;-69
2023/08/31 04:18:21;;;;;;;26.90;22.63;;;;;;;10.20;100.00;100698.91;4969847;28;20034;-68
2023/08/31 04:20:51;;;;;;;24.17;21.77;;;;;;;10.21;100.00;100695.50;4969690;28;20061;-69
2023/08/31 04:23:17;;;;;;;27.92;22.30;;;;;;;10.16;100.00;100697.09;4969601;28;20023;-69
2023/08/31 04:25:42;;;;;;;25.48;21.80;;;;;;;10.17;100.00;100701.41;4969498;28;20046;-67
2023/08/31 04:28:08;;;;;;;23.13;20.63;;;;;;;10.18;100.00;100698.00;4969750;28;20055;-69
2023/08/31 04:30:33;;;;;;;23.65;21.20;;;;;;;10.17;100.00;100689.34;4969370;28;20027;-68
2023/08/31 04:32:58;;;;;;;21.70;19.40;;;;;;;10.18;100.00;100696.28;4979720;28;20060;-69
2023/08/31 04:35:24;;;;;;;22.83;20.33;;;;;;;10.18;100.00;100700.59;4987886;28;20030;-68
2023/08/31 04:37:49;;;;;;;21.20;19.10;;;;;;;10.19;100.00;100697.16;4988337;28;20018;-69
2023/08/31 04:40:14;;;;;;;20.75;18.65;;;;;;;10.18;100.00;100705.78;4986582;28;20041;-68
2023/08/31 04:42:40;;;;;;;21.10;18.45;;;;;;;10.20;100.00;100709.28;4986912;28;20117;-68
2023/08/31 04:45:06;;;;;;;19.75;17.77;;;;;;;10.18;100.00;100708.38;4969426;28;20077;-68
2023/08/31 04:47:31;;;;;;;19.67;17.58;;;;;;;10.20;100.00;100711.88;4976040;28;20061;-66
2023/08/31 04:49:58;;;;;;;19.20;17.38;;;;;;;10.20;100.00;100711.88;4982653;28;20038;-69
2023/08/31 04:52:24;;;;;;;17.75;16.10;;;;;;;10.17;100.00;100711.78;4970367;28;20041;-69
2023/08/31 04:54:49;;;;;;;18.23;15.02;;;;;;;10.13;100.00;100707.34;4974012;28;20022;-69
2023/08/31 04:57:14;;;;;;;17.70;15.80;;;;;;;10.13;100.00;100709.94;4971141;28;20260;-68
2023/08/31 04:59:39;;;;;;;17.02;15.13;;;;;;;10.17;100.00;100714.38;4980687;28;20064;-68
2023/08/31 05:02:05;;;;;;;16.70;14.77;;;;;;;10.18;100.00;100721.31;4977568;28;20089;-67
2023/08/31 05:04:30;;;;;;;16.20;14.00;;;;;;;10.19;100.00;100720.47;4978467;28;20026;-68
2023/08/31 05:06:56;;;;;;;14.52;13.02;;;;;;;10.18;100.00;100724.75;4977135;28;20069;-69
2023/08/31 05:09:21;;;;;;;14.90;12.93;;;;;;;10.21;100.00;100729.19;4977726;28;20282;-68
2023/08/31 05:11:46;;;;;;;14.23;12.80;;;;;;;10.20;100.00;100736.06;4975918;28;20035;-67
2023/08/31 05:14:11;;;;;;;14.18;12.30;;;;;;;10.20;100.00;100736.06;4981172;28;20041;-67
2023/08/31 05:16:37;;;;;;;12.35;11.23;;;;;;;10.18;100.00;100732.53;4985092;28;20061;-68
2023/08/31 05:19:02;;;;;;;14.73;11.23;;;;;;;10.21;100.00;100734.34;4972573;28;20038;-66
2023/08/31 05:21:27;;;;;;;12.73;11.38;;;;;;;10.25;100.00;100745.69;4982761;28;20439;-69
2023/08/31 05:23:53;;;;;;;12.25;11.00;;;;;;;10.27;100.00;100747.50;4981154;28;20427;-68
2023/08/31 05:26:18;;;;;;;12.23;10.90;;;;;;;10.29;100.00;100747.56;4982205;28;20034;-67
2023/08/31 05:28:43;;;;;;;14.38;10.55;;;;;;;10.27;100.00;100751.81;4979358;28;20458;-67
2023/08/31 05:31:09;;;;;;;10.65;9.55;;;;;;;10.29;100.00;100752.75;4981124;28;20357;-68
2023/08/31 05:33:34;;;;;;;11.70;9.43;;;;;;;10.30;100.00;100762.25;4974706;28;20026;-67
2023/08/31 05:36:05;;;;;;;11.93;9.98;;;;;;;10.29;100.00;100761.38;4982978;28;20493;-69
2023/08/31 05:38:31;;;;;;;9.82;8.98;;;;;;;10.30;100.00;100765.75;4975563;28;20039;-69
2023/08/31 05:41:09;;;;;;;9.52;8.45;;;;;;;10.32;100.00;100763.19;4984907;28;20066;-65
2023/08/31 05:43:36;;;;;;;9.70;8.73;;;;;;;10.31;100.00;100767.47;4973856;28;20033;-64
2023/08/31 05:46:01;;;;;;;10.23;9.15;;;;;;;10.36;100.00;100767.63;4983105;28;20129;-68
2023/08/31 05:48:27;;;;;;;9.35;8.45;;;;;;;10.38;100.00;100770.28;4978437;28;20026;-68
2023/08/31 05:50:53;;;;;;;10.68;9.13;;;;;;;10.40;100.00;100774.66;4974431;28;20098;-67
2023/08/31 05:53:18;;;;;;;9.50;8.60;;;;;;;10.45;100.00;100774.81;4974893;28;20035;-66
2023/08/31 05:55:43;;;;;;;9.55;8.15;;;;;;;10.49;100.00;100776.69;4969019;28;20023;-69
2023/08/31 05:58:09;;;;;;;9.45;8.55;;;;;;;10.52;100.00;100779.38;4976760;28;20027;-69
2023/08/31 06:00:35;;;;;;;9.38;8.15;;;;;;;10.56;100.00;100770.88;4972229;28;20026;-68
2023/08/31 06:03:01;;;;;;;8.70;7.90;;;;;;;10.64;100.00;100778.91;4977958;28;20043;-69
2023/08/31 06:05:27;;;;;;;8.43;7.63;;;;;;;10.71;100.00;100779.97;4973810;28;20026;-69
2023/08/31 06:07:52;;;;;;;9.10;8.20;;;;;;;10.78;100.00;100779.31;4984465;28;20026;-69
2023/08/31 06:10:18;;;;;;;9.27;8.05;;;;;;;10.87;100.00;100783.88;4988358;28;20574;-68
2023/08/31 06:12:43;;;;;;;8.32;7.50;;;;;;;10.96;100.00;100785.88;4989772;28;20032;-67
2023/08/31 06:15:08;;;;;;;8.93;7.40;;;;;;;11.07;100.00;100781.00;4990291;28;20169;-69
2023/08/31 06:17:35;;;;;;;8.82;7.78;;;;;;;11.18;100.00;100776.13;4989345;28;20078;-68
2023/08/31 06:20:00;;;;;;;9.15;7.15;;;;;;;11.29;100.00;100785.09;4991212;28;20045;-66
2023/08/31 06:22:25;;;;;;;8.02;7.03;;;;;;;11.41;100.00;100783.69;4988571;28;20022;-67
2023/08/31 06:24:51;;;;;;;6.97;6.25;;;;;;;11.55;100.00;100790.97;4989789;28;20034;-67
2023/08/31 06:27:17;;;;;;;8.88;6.47;;;;;;;11.70;100.00;100796.56;4988977;28;20077;-67
2023/08/31 06:29:43;;;;;;;8.88;6.57;;;;;;;11.83;100.00;100794.28;4990174;28;20030;-67
2023/08/31 06:32:08;;;;;;;6.70;5.65;;;;;;;11.98;100.00;100797.28;4974099;28;20521;-66
2023/08/31 06:34:33;;;;;;;9.15;6.40;;;;;;;12.06;100.00;100809.59;4971639;28;20030;-67
2023/08/31 06:36:58;;;;;;;7.85;5.93;;;;;;;12.19;100.00;100801.31;4972270;28;20486;-67
2023/08/31 06:39:24;;;;;;;6.82;6.15;;;;;;;12.34;100.00;100805.13;4971475;28;20065;-66
2023/08/31 06:41:50;;;;;;;5.90;5.30;;;;;;;12.44;100.00;100812.28;4970536;28;20019;-67
2023/08/31 06:44:15;;;;;;;5.72;5.13;;;;;;;12.54;100.00;100815.13;4970513;28;20101;-67
2023/08/31 06:46:40;;;;;;;7.45;5.53;;;;;;;12.68;100.00;100811.09;4968982;28;20030;-66
2023/08/31 06:49:06;;;;;;;9.88;6.03;;;;;;;12.80;100.00;100812.22;4969346;28;20415;-65
2023/08/31 06:51:34;;;;;;;7.43;5.63;;;;;;;12.93;100.00;100808.19;4969663;28;20029;-67
2023/08/31 06:54:05;;;;;;;8.32;5.63;;;;;;;13.03;100.00;100817.03;4969130;28;20090;-66
2023/08/31 06:56:32;;;;;;;7.78;5.32;;;;;;;13.15;100.00;100819.91;4969699;28;20027;-66
2023/08/31 06:58:57;;;;;;;6.55;5.13;;;;;;;13.30;100.00;100819.34;4971029;28;20038;-66
2023/08/31 07:01:23;;;;;;;5.93;5.28;;;;;;;13.53;100.00;100818.06;4971822;28;20086;-67
2023/08/31 07:03:48;;;;;;;6.43;4.60;;;;;;;13.76;100.00;100826.31;4971466;28;20022;-66
2023/08/31 07:06:13;;;;;;;7.07;5.05;;;;;;;14.02;100.00;100832.88;4971911;28;20047;-67
2023/08/31 07:08:40;;;;;;;5.78;4.25;;;;;;;14.28;100.00;100832.44;4971147;28;20026;-67
2023/08/31 07:11:06;;;;;;;7.82;4.28;;;;;;;14.52;100.00;100839.78;4971666;28;20034;-66
2023/08/31 07:13:31;;;;;;;8.75;4.65;;;;;;;14.75;100.00;100835.78;4970193;28;20070;-67
2023/08/31 07:15:57;;;;;;;5.80;4.43;;;;;;;15.07;100.00;100838.00;4971114;28;20018;-67
2023/08/31 07:18:22;;;;;;;7.28;3.67;;;;;;;15.37;100.00;100838.34;4980595;28;20114;-67
2023/08/31 07:20:47;;;;;;;6.88;3.75;;;;;;;15.59;100.00;100836.88;4988547;28;20077;-66
2023/08/31 07:23:12;;;;;;;6.32;4.38;;;;;;;15.97;100.00;100845.09;4989718;28;20036;-67
2023/08/31 07:25:38;;;;;;;7.45;4.28;;;;;;;15.94;100.00;100847.66;4988964;28;20030;-67
2023/08/31 07:28:03;;;;;;;6.18;3.80;;;;;;;16.26;100.00;100849.72;4988464;28;20054;-67
2023/08/31 07:30:30;;;;;;;5.63;3.60;;;;;;;16.66;100.00;100850.88;4985347;28;20106;-67
2023/08/31 07:32:55;;;;;;;4.90;3.28;;;;;;;17.09;100.00;100844.19;4970456;28;20026;-67
2023/08/31 07:35:21;;;;;;;4.38;3.60;;;;;;;17.38;100.00;100846.06;4973446;28;20496;-67
2023/08/31 07:37:46;;;;;;;4.97;3.70;;;;;;;17.62;100.00;100841.78;4979662;28;20063;-67
2023/08/31 07:40:12;;;;;;;5.40;3.65;;;;;;;17.83;100.00;100848.81;4973548;28;20513;-68
2023/08/31 07:42:38;;;;;;;3.75;3.45;;;;;;;18.14;100.00;100850.63;4989550;28;20032;-67
2023/08/31 07:45:05;;;;;;;4.50;3.10;;;;;;;18.62;100.00;100852.34;4971610;28;20022;-66
2023/08/31 07:47:30;;;;;;;5.30;4.30;;;;;;;18.88;100.00;100859.31;4989143;28;20061;-67
2023/08/31 07:49:56;;;;;;;7.97;3.70;;;;;;;19.06;100.00;100860.13;4988801;28;20837;-68
2023/08/31 07:52:21;;;;;;;7.25;3.70;;;;;;;19.44;100.00;100848.66;4988897;28;20030;-67
2023/08/31 07:54:46;;;;;;;5.50;3.35;;;;;;;19.79;100.00;100858.94;4988470;28;20042;-67
2023/08/31 07:57:11;;;;;;;6.43;3.17;;;;;;;20.14;100.00;100860.50;4988491;28;20121;-67
2023/08/31 07:59:39;;;;;;;6.18;3.50;;;;;;;20.04;98.57;100858.78;4988109;28;20039;-67
2023/08/31 08:02:05;;;;;;;5.15;3.00;;;;;;;20.02;100.00;100860.56;4988845;28;20026;-67
2023/08/31 08:04:31;;;;;;;4.35;2.88;;;;;;;20.47;98.74;100862.84;4988101;28;20097;-67
2023/08/31 08:06:56;;;;;;;4.40;3.58;;;;;;;20.81;96.01;100873.97;4998716;28;20094;-67
2023/08/31 08:09:21;;;;;;;6.80;3.13;;;;;;;21.12;92.10;100868.38;4990537;28;20036;-67
2023/08/31 08:11:47;;;;;;;7.00;3.20;;;;;;;21.12;92.72;100868.38;4988188;28;20093;-67
2023/08/31 08:14:12;;;;;;;5.18;2.80;;;;;;;21.13;92.04;100869.25;4970321;28;20024;-67
2023/08/31 08:16:37;;;;;;;7.57;3.58;;;;;;;20.88;94.22;100876.50;4988532;28;20057;-67
2023/08/31 08:19:03;;;;;;;4.80;3.00;;;;;;;20.65;90.70;100874.13;4987731;28;20038;-67
2023/08/31 08:21:28;;;;;;;6.00;3.03;;;;;;;20.81;94.25;100869.56;4989200;28;20053;-67
2023/08/31 08:23:53;;;;;;;3.95;3.05;;;;;;;20.96;90.44;100872.94;4971691;28;20443;-67
2023/08/31 08:26:19;;;;;;;6.13;3.35;;;;;;;21.02;92.07;100885.16;4969374;28;20030;-67
2023/08/31 08:28:45;;;;;;;5.35;3.90;;;;;;;21.33;91.30;100879.56;4969120;28;20446;-68
2023/08/31 08:31:11;;;;;;;5.32;3.47;;;;;;;21.58;90.15;100882.75;4969925;28;20610;-66
2023/08/31 08:33:36;;;;;;;5.55;3.28;;;;;;;21.91;88.04;100871.75;4980932;28;20026;-68
2023/08/31 08:36:01;;;;;;;5.80;3.55;;;;;;;21.87;86.81;100877.09;4969478;28;20431;-67
2023/08/31 08:38:27;;;;;;;8.20;3.38;;;;;;;22.09;87.06;100879.41;4969931;28;20054;-68
2023/08/31 08:40:52;;;;;;;4.88;3.10;;;;;;;22.23;85.07;100880.06;4969376;28;20019;-68
2023/08/31 08:43:25;;;;;;;5.30;2.95;;;;;;;22.28;85.60;100891.44;4968791;28;20023;-68
2023/08/31 08:45:51;;;;;;;6.45;2.70;;;;;;;22.42;84.89;100892.94;4977496;28;20034;-68
2023/08/31 08:48:17;;;;;;;7.22;3.58;;;;;;;22.47;88.14;100900.81;4988003;28;20034;-67
2023/08/31 08:50:43;;;;;;;5.65;3.25;;;;;;;22.34;83.48;100894.84;4970840;28;20470;-68
2023/08/31 08:53:10;;;;;;;6.03;3.33;;;;;;;22.26;83.68;100892.34;4987325;28;20022;-68
2023/08/31 08:55:36;;;;;;;4.47;3.10;;;;;;;22.33;84.98;100903.66;4988720;28;20836;-67
2023/08/31 08:58:01;;;;;;;5.28;3.05;;;;;;;22.26;82.74;100898.50;4987335;28;20038;-68
2023/08/31 09:00:30;;;;;;;6.50;3.25;;;;;;;22.39;83.49;100898.28;4988399;28;20216;-67
2023/08/31 09:02:56;;;;;;;4.40;3.05;;;;;;;22.52;83.10;100904.25;4987389;28;20076;-68
2023/08/31 09:05:22;;;;;;;4.38;3.15;;;;;;;22.48;83.91;100903.41;4997176;28;20046;-67
2023/08/31 09:08:12;;;;;;;5.80;3.22;;;;;;;22.26;86.30;100898.50;4989739;28;20111;-68
2023/08/31 09:10:40;;;;;;;6.32;3.00;;;;;;;22.01;83.85;100898.88;4987438;28;20093;-67
2023/08/31 09:13:08;;;;;;;4.50;3.25;;;;;;;21.49;83.17;100901.31;4975238;28;20069;-68
2023/08/31 09:15:51;;;;;;;5.03;2.75;;;;;;;21.09;87.69;100902.66;4985802;28;20030;-68
2023/08/31 09:18:24;;;;;;;5.13;3.20;;;;;;;20.95;87.49;100906.31;4986716;28;20073;-67
2023/08/31 09:20:49;;;;;;;2.63;2.40;;;;;;;21.16;87.77;100900.81;4986036;28;20024;-68
2023/08/31 09:23:16;;;;;;;4.75;2.90;;;;;;;21.41;90.10;100905.78;4997111;28;20513;-68
2023/08/31 09:25:43;;;;;;;6.97;3.22;;;;;;;21.33;89.70;100906.78;4987038;28;20497;-68
2023/08/31 09:28:10;;;;;;;6.97;2.58;;;;;;;21.38;89.99;100908.47;4986625;28;20062;-68
2023/08/31 09:30:40;;;;;;;4.50;3.22;;;;;;;21.28;88.26;100919.13;4981931;28;20019;-68
2023/08/31 09:33:06;;;;;;;5.80;2.95;;;;;;;21.31;88.59;100907.69;4968685;28;20502;-68
2023/08/31 09:35:32;;;;;;;5.78;2.85;;;;;;;21.23;87.42;100915.66;4968037;28;20038;-68
2023/08/31 09:37:58;;;;;;;6.10;3.50;;;;;;;21.21;85.80;100909.53;4968624;28;20027;-68
2023/08/31 09:40:24;;;;;;;6.45;3.28;;;;;;;21.14;85.46;100918.44;4968421;28;20027;-66
2023/08/31 09:42:52;;;;;;;6.95;2.78;;;;;;;20.84;87.43;100918.69;4968624;28;20037;-67
2023/08/31 09:45:25;;;;;;;3.88;2.38;;;;;;;21.05;90.18;100917.63;4974967;28;20022;-67
2023/08/31 09:47:51;;;;;;;4.10;2.50;;;;;;;21.11;86.33;100916.69;4991288;28;20037;-68
2023/08/31 09:50:18;;;;;;;4.80;2.38;;;;;;;21.13;85.05;100908.75;4972697;28;20394;-67
2023/08/31 09:52:45;;;;;;;4.53;2.38;;;;;;;20.74;85.41;100924.03;4972221;28;20030;-67
2023/08/31 09:55:12;;;;;;;3.25;2.47;;;;;;;20.39;89.07;100920.81;4972234;28;20023;-67
2023/08/31 09:57:38;;;;;;;3.78;2.38;;;;;;;20.42;92.57;100921.69;4972549;28;20533;-68
2023/08/31 10:00:04;;;;;;;4.03;2.60;;;;;;;20.54;92.68;100926.84;4971883;28;20030;-68
2023/08/31 10:02:30;;;;;;;5.20;3.15;;;;;;;20.43;89.03;100923.41;4972199;28;20207;-69
2023/08/31 10:04:56;;;;;;;3.40;2.45;;;;;;;20.60;90.15;100925.91;4972816;28;20022;-67
2023/08/31 10:07:22;;;;;;;5.22;2.72;;;;;;;20.60;88.10;100921.53;4972007;28;20034;-68
2023/08/31 10:09:48;;;;;;;3.45;2.75;;;;;;;20.67;90.57;100929.38;4972776;28;20027;-68
2023/08/31 10:12:14;;;;;;;5.78;2.28;;;;;;;20.58;87.38;100928.56;4972694;28;20337;-67
2023/08/31 10:14:39;;;;;;;3.70;2.40;;;;;;;20.56;89.04;100932.94;4972231;28;20054;-67
2023/08/31 10:17:04;;;;;;;3.95;2.60;;;;;;;20.54;88.28;100931.25;4984823;28;20034;-65
2023/08/31 10:19:30;;;;;;;4.40;2.50;;;;;;;20.57;85.60;100925.94;4971773;28;20043;-66
2023/08/31 10:22:00;;;;;;;2.85;2.10;;;;;;;20.51;86.50;100926.84;4971497;28;20022;-67
2023/08/31 10:25:00;;;;;;;3.47;2.53;;;;;;;20.46;87.13;100918.13;4984638;28;20027;-67
2023/08/31 10:27:27;;;;;;;4.40;2.42;;;;;;;20.35;88.72;100920.84;4971352;28;20042;-67
2023/08/31 10:29:53;;;;;;;3.78;2.25;;;;;;;20.35;90.42;100915.56;4971608;28;20073;-67
2023/08/31 10:32:19;;;;;;;6.47;2.20;;;;;;;20.34;85.40;100911.22;4976323;28;20050;-67
2023/08/31 10:35:04;;;;;;;3.40;1.70;;;;;;;20.31;85.34;100914.72;4991081;28;20112;-67
2023/08/31 10:37:29;;;;;;;2.45;1.45;;;;;;;20.21;84.72;100913.06;4953488;28;20030;-67
2023/08/31 10:40:11;;;;;;;2.80;1.63;;;;;;;19.98;82.58;100916.69;4984093;28;20398;-67
2023/08/31 10:42:47;;;;;;;5.32;2.22;;;;;;;19.81;82.42;100909.75;4971366;28;20037;-67
2023/08/31 10:45:20;;;;;;;4.00;1.90;;;;;;;19.83;84.51;100902.75;4970988;28;20549;-67
2023/08/31 10:47:46;;;;;;;4.65;2.45;;;;;;;20.06;86.29;100893.88;4970969;28;20033;-67
2023/08/31 10:50:20;;;;;;;2.97;1.88;;;;;;;20.29;83.23;100895.47;4970972;28;20030;-67
2023/08/31 10:52:45;;;;;;;6.75;2.17;;;;;;;20.30;81.51;100896.31;4971482;28;20129;-67
2023/08/31 10:55:11;;;;;;;3.83;1.90;;;;;;;20.49;80.89;100897.06;4972045;28;20542;-67
2023/08/31 10:57:36;;;;;;;3.22;1.70;;;;;;;20.45;79.10;100895.34;4971763;28;20027;-67
2023/08/31 11:00:02;;;;;;;6.28;1.90;;;;;;;20.67;78.79;100897.78;4972885;28;20054;-68
2023/08/31 11:02:43;;;;;;;2.80;1.75;;;;;;;20.85;75.85;100887.06;4971005;28;20035;-67
2023/08/31 11:05:16;;;;;;;2.65;1.60;;;;;;;21.00;78.44;100879.91;4972153;28;20420;-67
2023/08/31 11:07:47;;;;;;;4.30;2.45;;;;;;;21.11;76.63;100888.59;4974741;28;20352;-68
2023/08/31 11:10:19;;;;;;;3.90;1.80;;;;;;;21.19;75.55;100891.13;4981123;28;20029;-67
2023/08/31 11:12:49;;;;;;;5.60;2.08;;;;;;;21.06;74.42;100898.31;4971518;28;20031;-68